sensor_id;sensor_type;location;lat;lon;timestamp;pressure;altitude;pressure_sealevel;temperature;humidity
33554;BME280;19885;42.208;24.952;2022-08-06T00:01:50;99543.44;;;26.16;51.11
33554;BME280;19885;42.208;24.952;2022-08-06T00:04:16;99537.50;;;26.11;51.69
33554;BME280;19885;42.208;24.952;2022-08-06T00:06:42;99542.16;;;26.07;51.81
33554;BME280;19885;42.208;24.952;2022-08-06T00:09:08;99548.34;;;26.08;51.73
33554;BME280;19885;42.208;24.952;2022-08-06T00:11:34;99548.72;;;26.02;51.81
33554;BME280;19885;42.208;24.952;2022-08-06T00:14:00;99540.53;;;26.05;52.56
33554;BME280;19885;42.208;24.952;2022-08-06T00:16:28;99548.03;;;25.84;53.09
33554;BME280;19885;42.208;24.952;2022-08-06T00:18:56;99548.66;;;25.74;52.74
33554;BME280;19885;42.208;24.952;2022-08-06T00:21:24;99562.34;;;25.54;53.60
33554;BME280;19885;42.208;24.952;2022-08-06T00:23:49;99561.47;;;25.23;54.01
33554;BME280;19885;42.208;24.952;2022-08-06T00:26:20;99564.75;;;25.13;55.04
33554;BME280;19885;42.208;24.952;2022-08-06T00:28:50;99569.16;;;24.98;55.69
33554;BME280;19885;42.208;24.952;2022-08-06T00:31:21;99568.13;;;24.85;56.30
33554;BME280;19885;42.208;24.952;2022-08-06T00:33:46;99577.91;;;24.69;57.05
33554;BME280;19885;42.208;24.952;2022-08-06T00:36:12;99572.56;;;24.69;56.80
33554;BME280;19885;42.208;24.952;2022-08-06T00:38:40;99576.16;;;24.68;56.78
33554;BME280;19885;42.208;24.952;2022-08-06T00:41:09;99567.03;;;24.56;56.74
33554;BME280;19885;42.208;24.952;2022-08-06T00:43:38;99570.66;;;24.55;56.65
33554;BME280;19885;42.208;24.952;2022-08-06T00:46:06;99578.56;;;24.57;57.11
33554;BME280;19885;42.208;24.952;2022-08-06T00:48:35;99576.63;;;24.28;57.58
33554;BME280;19885;42.208;24.952;2022-08-06T00:51:01;99575.38;;;24.18;57.59
33554;BME280;19885;42.208;24.952;2022-08-06T00:53:26;99575.47;;;23.99;58.04
33554;BME280;19885;42.208;24.952;2022-08-06T00:55:55;99577.09;;;24.01;58.42
33554;BME280;19885;42.208;24.952;2022-08-06T00:58:23;99581.38;;;24.05;57.70
33554;BME280;19885;42.208;24.952;2022-08-06T01:00:49;99577.28;;;23.98;57.99
33554;BME280;19885;42.208;24.952;2022-08-06T01:03:15;99578.16;;;23.48;58.89
33554;BME280;19885;42.208;24.952;2022-08-06T01:05:43;99582.63;;;22.93;60.54
33554;BME280;19885;42.208;24.952;2022-08-06T01:08:10;99583.25;;;22.62;60.97
33554;BME280;19885;42.208;24.952;2022-08-06T01:10:36;99581.81;;;22.53;62.24
33554;BME280;19885;42.208;24.952;2022-08-06T01:13:02;99575.63;;;22.73;61.81
33554;BME280;19885;42.208;24.952;2022-08-06T01:15:28;99568.16;;;22.42;62.33
33554;BME280;19885;42.208;24.952;2022-08-06T01:17:55;99569.47;;;22.34;62.75
33554;BME280;19885;42.208;24.952;2022-08-06T01:26:53;99569.94;;;22.62;62.38
33554;BME280;19885;42.208;24.952;2022-08-06T01:29:22;99529.28;;;22.41;62.04
33554;BME280;19885;42.208;24.952;2022-08-06T01:32:06;99575.72;;;22.51;62.15
33554;BME280;19885;42.208;24.952;2022-08-06T01:34:38;99572.06;;;22.54;62.03
33554;BME280;19885;42.208;24.952;2022-08-06T01:37:12;99561.50;;;22.52;62.53
33554;BME280;19885;42.208;24.952;2022-08-06T01:39:41;99560.72;;;22.50;61.88
33554;BME280;19885;42.208;24.952;2022-08-06T01:42:09;99560.28;;;22.59;61.70
33554;BME280;19885;42.208;24.952;2022-08-06T01:44:39;99564.31;;;22.87;60.57
33554;BME280;19885;42.208;24.952;2022-08-06T01:47:10;99564.03;;;22.55;61.67
33554;BME280;19885;42.208;24.952;2022-08-06T01:49:41;99565.94;;;22.33;61.57
33554;BME280;19885;42.208;24.952;2022-08-06T01:52:08;99560.13;;;22.25;62.45
33554;BME280;19885;42.208;24.952;2022-08-06T01:54:39;99554.31;;;22.36;61.83
33554;BME280;19885;42.208;24.952;2022-08-06T01:57:10;99557.38;;;22.65;61.66
33554;BME280;19885;42.208;24.952;2022-08-06T01:59:42;99557.13;;;22.89;59.48
33554;BME280;19885;42.208;24.952;2022-08-06T02:02:13;99566.88;;;23.07;59.74
33554;BME280;19885;42.208;24.952;2022-08-06T02:04:42;99570.63;;;23.03;59.57
33554;BME280;19885;42.208;24.952;2022-08-06T02:07:12;99574.31;;;23.17;58.94
33554;BME280;19885;42.208;24.952;2022-08-06T02:09:41;99549.59;;;22.98;59.10
33554;BME280;19885;42.208;24.952;2022-08-06T02:12:14;99559.00;;;23.05;59.69
33554;BME280;19885;42.208;24.952;2022-08-06T02:14:46;99561.91;;;22.82;59.89
33554;BME280;19885;42.208;24.952;2022-08-06T02:17:15;99558.38;;;22.82;59.66
33554;BME280;19885;42.208;24.952;2022-08-06T02:19:47;99562.56;;;23.04;59.89
33554;BME280;19885;42.208;24.952;2022-08-06T02:22:15;99556.13;;;23.27;59.09
33554;BME280;19885;42.208;24.952;2022-08-06T02:24:44;99567.09;;;23.02;58.80
33554;BME280;19885;42.208;24.952;2022-08-06T02:27:12;99551.69;;;22.92;59.58
33554;BME280;19885;42.208;24.952;2022-08-06T02:29:41;99555.78;;;23.16;59.09
33554;BME280;19885;42.208;24.952;2022-08-06T02:32:07;99548.13;;;23.10;59.00
33554;BME280;19885;42.208;24.952;2022-08-06T02:34:34;99556.38;;;23.04;59.28
33554;BME280;19885;42.208;24.952;2022-08-06T02:37:29;99560.00;;;23.38;58.48
33554;BME280;19885;42.208;24.952;2022-08-06T02:40:29;99559.59;;;23.63;57.60
33554;BME280;19885;42.208;24.952;2022-08-06T02:43:16;99565.72;;;23.65;57.89
33554;BME280;19885;42.208;24.952;2022-08-06T02:46:11;99559.28;;;23.69;57.18
33554;BME280;19885;42.208;24.952;2022-08-06T02:48:51;99562.50;;;23.42;57.78
33554;BME280;19885;42.208;24.952;2022-08-06T02:51:27;99556.81;;;23.66;57.60
33554;BME280;19885;42.208;24.952;2022-08-06T02:54:14;99566.50;;;23.84;57.13
33554;BME280;19885;42.208;24.952;2022-08-06T02:56:45;99556.78;;;23.49;58.03
33554;BME280;19885;42.208;24.952;2022-08-06T02:59:13;99557.97;;;23.61;57.45
33554;BME280;19885;42.208;24.952;2022-08-06T03:01:49;99558.59;;;23.83;56.79
33554;BME280;19885;42.208;24.952;2022-08-06T03:04:18;99557.56;;;23.51;57.75
33554;BME280;19885;42.208;24.952;2022-08-06T03:06:46;99547.25;;;23.09;59.08
33554;BME280;19885;42.208;24.952;2022-08-06T03:09:15;99553.78;;;22.85;59.74
33554;BME280;19885;42.208;24.952;2022-08-06T03:11:46;99552.94;;;23.02;59.76
33554;BME280;19885;42.208;24.952;2022-08-06T03:14:12;99551.00;;;23.05;59.33
33554;BME280;19885;42.208;24.952;2022-08-06T03:16:40;99551.34;;;23.16;58.81
33554;BME280;19885;42.208;24.952;2022-08-06T03:19:07;99549.38;;;23.20;58.90
33554;BME280;19885;42.208;24.952;2022-08-06T03:21:34;99557.00;;;22.73;60.25
33554;BME280;19885;42.208;24.952;2022-08-06T03:24:04;99546.75;;;22.65;60.58
33554;BME280;19885;42.208;24.952;2022-08-06T03:26:36;99554.06;;;22.60;60.78
33554;BME280;19885;42.208;24.952;2022-08-06T03:29:02;99560.91;;;22.66;60.87
33554;BME280;19885;42.208;24.952;2022-08-06T03:31:30;99559.50;;;22.57;61.45
33554;BME280;19885;42.208;24.952;2022-08-06T03:34:00;99536.59;;;22.36;61.22
33554;BME280;19885;42.208;24.952;2022-08-06T03:36:27;99558.81;;;22.73;60.51
33554;BME280;19885;42.208;24.952;2022-08-06T03:38:56;99560.13;;;23.00;60.50
33554;BME280;19885;42.208;24.952;2022-08-06T03:41:27;99508.31;;;22.73;59.78
33554;BME280;19885;42.208;24.952;2022-08-06T03:43:53;99549.19;;;23.06;60.00
33554;BME280;19885;42.208;24.952;2022-08-06T03:49:35;99566.28;;;23.19;60.62
33554;BME280;19885;42.208;24.952;2022-08-06T03:52:02;99560.00;;;22.47;62.29
33554;BME280;19885;42.208;24.952;2022-08-06T03:54:32;99561.75;;;22.66;62.31
33554;BME280;19885;42.208;24.952;2022-08-06T03:57:06;99568.22;;;22.80;61.66
33554;BME280;19885;42.208;24.952;2022-08-06T03:59:34;99556.69;;;22.23;62.47
33554;BME280;19885;42.208;24.952;2022-08-06T04:02:02;99577.19;;;22.20;63.45
33554;BME280;19885;42.208;24.952;2022-08-06T04:04:30;99576.97;;;22.24;63.61
33554;BME280;19885;42.208;24.952;2022-08-06T04:06:58;99568.09;;;22.25;63.24
33554;BME280;19885;42.208;24.952;2022-08-06T04:09:25;99569.00;;;22.24;63.42
33554;BME280;19885;42.208;24.952;2022-08-06T04:11:53;99561.91;;;22.63;62.29
33554;BME280;19885;42.208;24.952;2022-08-06T04:14:19;99569.72;;;22.66;61.75
33554;BME280;19885;42.208;24.952;2022-08-06T04:16:45;99568.13;;;22.62;61.71
33554;BME280;19885;42.208;24.952;2022-08-06T04:19:13;99578.13;;;22.76;61.37
33554;BME280;19885;42.208;24.952;2022-08-06T04:21:40;99579.38;;;22.30;63.31
33554;BME280;19885;42.208;24.952;2022-08-06T04:24:05;99583.50;;;22.17;63.82
33554;BME280;19885;42.208;24.952;2022-08-06T04:26:32;99580.81;;;22.37;63.33
33554;BME280;19885;42.208;24.952;2022-08-06T04:28:59;99567.28;;;22.81;62.26
33554;BME280;19885;42.208;24.952;2022-08-06T04:31:27;99580.47;;;23.01;61.53
33554;BME280;19885;42.208;24.952;2022-08-06T04:33:55;99581.16;;;23.23;60.85
33554;BME280;19885;42.208;24.952;2022-08-06T04:36:21;99565.78;;;23.11;60.95
33554;BME280;19885;42.208;24.952;2022-08-06T04:38:48;99586.81;;;22.80;61.62
33554;BME280;19885;42.208;24.952;2022-08-06T04:41:14;99580.28;;;22.68;61.74
33554;BME280;19885;42.208;24.952;2022-08-06T04:43:41;99556.84;;;22.57;62.32
33554;BME280;19885;42.208;24.952;2022-08-06T04:46:09;99581.00;;;22.72;61.77
33554;BME280;19885;42.208;24.952;2022-08-06T04:48:36;99591.59;;;22.90;61.49
33554;BME280;19885;42.208;24.952;2022-08-06T04:51:03;99587.16;;;22.91;61.35
33554;BME280;19885;42.208;24.952;2022-08-06T04:53:36;99596.31;;;22.85;61.57
33554;BME280;19885;42.208;24.952;2022-08-06T04:56:03;99595.44;;;22.85;62.69
33554;BME280;19885;42.208;24.952;2022-08-06T04:58:29;99590.03;;;22.86;62.75
33554;BME280;19885;42.208;24.952;2022-08-06T05:00:54;99608.28;;;22.94;61.52
33554;BME280;19885;42.208;24.952;2022-08-06T05:03:20;99599.91;;;23.20;62.06
33554;BME280;19885;42.208;24.952;2022-08-06T05:06:08;99589.41;;;23.35;61.66
33554;BME280;19885;42.208;24.952;2022-08-06T05:08:37;99593.56;;;23.41;60.80
33554;BME280;19885;42.208;24.952;2022-08-06T05:11:37;99587.66;;;23.53;60.61
33554;BME280;19885;42.208;24.952;2022-08-06T05:14:09;99588.81;;;23.29;60.94
33554;BME280;19885;42.208;24.952;2022-08-06T05:16:44;99588.56;;;23.35;60.19
33554;BME280;19885;42.208;24.952;2022-08-06T05:19:19;99586.69;;;23.37;60.13
33554;BME280;19885;42.208;24.952;2022-08-06T05:21:47;99580.13;;;23.44;61.55
33554;BME280;19885;42.208;24.952;2022-08-06T05:24:16;99583.41;;;23.66;58.83
33554;BME280;19885;42.208;24.952;2022-08-06T05:26:42;99588.41;;;23.72;57.85
33554;BME280;19885;42.208;24.952;2022-08-06T05:29:08;99589.81;;;23.79;58.36
33554;BME280;19885;42.208;24.952;2022-08-06T05:31:37;99595.38;;;23.92;59.05
33554;BME280;19885;42.208;24.952;2022-08-06T05:34:09;99585.44;;;23.95;57.75
33554;BME280;19885;42.208;24.952;2022-08-06T05:36:35;99601.94;;;24.02;58.84
33554;BME280;19885;42.208;24.952;2022-08-06T05:39:01;99600.13;;;23.85;58.52
33554;BME280;19885;42.208;24.952;2022-08-06T05:41:27;99603.75;;;23.84;58.85
33554;BME280;19885;42.208;24.952;2022-08-06T05:43:56;99597.44;;;23.87;57.78
33554;BME280;19885;42.208;24.952;2022-08-06T05:46:29;99602.44;;;24.10;56.53
33554;BME280;19885;42.208;24.952;2022-08-06T05:52:10;99590.81;;;24.28;57.06
33554;BME280;19885;42.208;24.952;2022-08-06T05:57:46;99592.75;;;24.42;57.44
33554;BME280;19885;42.208;24.952;2022-08-06T06:00:16;99595.69;;;24.53;56.51
33554;BME280;19885;42.208;24.952;2022-08-06T06:02:48;99587.16;;;24.46;55.78
33554;BME280;19885;42.208;24.952;2022-08-06T06:05:15;99592.31;;;24.65;55.86
33554;BME280;19885;42.208;24.952;2022-08-06T06:07:42;99592.16;;;24.68;56.09
33554;BME280;19885;42.208;24.952;2022-08-06T06:10:08;99586.63;;;24.88;57.18
33554;BME280;19885;42.208;24.952;2022-08-06T06:12:35;99588.59;;;25.00;57.34
33554;BME280;19885;42.208;24.952;2022-08-06T06:15:03;99584.19;;;25.15;56.49
33554;BME280;19885;42.208;24.952;2022-08-06T06:20:07;99587.53;;;25.34;56.38
33554;BME280;19885;42.208;24.952;2022-08-06T06:22:46;99589.59;;;25.44;55.78
33554;BME280;19885;42.208;24.952;2022-08-06T06:25:34;99590.59;;;25.42;56.17
33554;BME280;19885;42.208;24.952;2022-08-06T06:30:58;99594.44;;;25.22;56.95
33554;BME280;19885;42.208;24.952;2022-08-06T06:36:08;99540.44;;;25.03;57.66
33554;BME280;19885;42.208;24.952;2022-08-06T06:39:06;99582.63;;;25.26;57.30
33554;BME280;19885;42.208;24.952;2022-08-06T06:42:06;99576.19;;;25.46;56.86
33554;BME280;19885;42.208;24.952;2022-08-06T06:45:05;99571.44;;;25.65;57.12
33554;BME280;19885;42.208;24.952;2022-08-06T06:47:36;99574.22;;;25.64;56.60
33554;BME280;19885;42.208;24.952;2022-08-06T06:50:11;99569.97;;;25.75;56.31
33554;BME280;19885;42.208;24.952;2022-08-06T06:52:40;99568.94;;;25.78;55.44
33554;BME280;19885;42.208;24.952;2022-08-06T06:57:43;99558.81;;;25.97;55.53
33554;BME280;19885;42.208;24.952;2022-08-06T07:00:11;99562.31;;;26.13;55.83
33554;BME280;19885;42.208;24.952;2022-08-06T07:02:38;99564.59;;;26.33;56.34
33554;BME280;19885;42.208;24.952;2022-08-06T07:05:08;99553.63;;;26.52;53.58
33554;BME280;19885;42.208;24.952;2022-08-06T07:07:37;99555.41;;;26.65;53.41
33554;BME280;19885;42.208;24.952;2022-08-06T07:10:08;99562.28;;;26.69;54.50
33554;BME280;19885;42.208;24.952;2022-08-06T07:12:35;99563.44;;;26.79;52.90
33554;BME280;19885;42.208;24.952;2022-08-06T07:15:04;99562.22;;;27.12;53.79
33554;BME280;19885;42.208;24.952;2022-08-06T07:17:33;99566.72;;;27.11;53.33
33554;BME280;19885;42.208;24.952;2022-08-06T07:20:07;99562.41;;;27.09;53.45
33554;BME280;19885;42.208;24.952;2022-08-06T07:22:36;99551.72;;;27.09;53.95
33554;BME280;19885;42.208;24.952;2022-08-06T07:25:05;99546.44;;;27.34;52.41
33554;BME280;19885;42.208;24.952;2022-08-06T07:27:38;99543.13;;;27.30;53.21
33554;BME280;19885;42.208;24.952;2022-08-06T07:30:05;99534.22;;;27.30;51.91
33554;BME280;19885;42.208;24.952;2022-08-06T07:32:33;99542.13;;;27.58;51.08
33554;BME280;19885;42.208;24.952;2022-08-06T07:35:04;99551.16;;;27.57;51.35
33554;BME280;19885;42.208;24.952;2022-08-06T07:37:31;99544.63;;;27.61;51.46
33554;BME280;19885;42.208;24.952;2022-08-06T07:40:00;99538.06;;;27.65;50.80
33554;BME280;19885;42.208;24.952;2022-08-06T07:42:27;99542.28;;;27.94;51.08
33554;BME280;19885;42.208;24.952;2022-08-06T07:44:57;99532.19;;;27.85;50.80
33554;BME280;19885;42.208;24.952;2022-08-06T07:47:34;99531.50;;;28.08;48.94
33554;BME280;19885;42.208;24.952;2022-08-06T07:50:02;99537.72;;;28.09;50.33
33554;BME280;19885;42.208;24.952;2022-08-06T07:52:29;99536.66;;;28.11;50.31
33554;BME280;19885;42.208;24.952;2022-08-06T07:54:56;99534.34;;;28.31;50.54
33554;BME280;19885;42.208;24.952;2022-08-06T07:57:23;99528.66;;;28.60;48.38
33554;BME280;19885;42.208;24.952;2022-08-06T07:59:52;99530.16;;;28.64;49.08
33554;BME280;19885;42.208;24.952;2022-08-06T08:02:19;99534.44;;;28.67;49.75
33554;BME280;19885;42.208;24.952;2022-08-06T08:04:46;99530.56;;;28.71;49.33
33554;BME280;19885;42.208;24.952;2022-08-06T08:07:30;99512.13;;;28.90;48.97
33554;BME280;19885;42.208;24.952;2022-08-06T08:09:58;99516.34;;;29.18;48.67
33554;BME280;19885;42.208;24.952;2022-08-06T08:12:25;99525.03;;;29.21;47.34
33554;BME280;19885;42.208;24.952;2022-08-06T08:14:52;99515.66;;;29.03;47.76
33554;BME280;19885;42.208;24.952;2022-08-06T08:17:18;99517.53;;;29.14;47.17
33554;BME280;19885;42.208;24.952;2022-08-06T08:19:46;99520.13;;;29.50;47.41
33554;BME280;19885;42.208;24.952;2022-08-06T08:22:14;99515.16;;;29.56;47.07
33554;BME280;19885;42.208;24.952;2022-08-06T08:24:45;99511.47;;;29.92;45.58
33554;BME280;19885;42.208;24.952;2022-08-06T08:27:13;99506.50;;;30.10;45.13
33554;BME280;19885;42.208;24.952;2022-08-06T08:29:42;99508.41;;;29.97;45.16
33554;BME280;19885;42.208;24.952;2022-08-06T08:32:08;99497.19;;;30.25;44.06
33554;BME280;19885;42.208;24.952;2022-08-06T08:34:35;99493.06;;;30.43;42.61
33554;BME280;19885;42.208;24.952;2022-08-06T08:37:01;99502.84;;;30.55;44.25
33554;BME280;19885;42.208;24.952;2022-08-06T08:39:28;99498.63;;;30.84;42.90
33554;BME280;19885;42.208;24.952;2022-08-06T08:42:09;99497.50;;;30.76;41.77
33554;BME280;19885;42.208;24.952;2022-08-06T08:44:35;99493.28;;;30.40;42.07
33554;BME280;19885;42.208;24.952;2022-08-06T08:47:02;99501.00;;;30.33;42.84
33554;BME280;19885;42.208;24.952;2022-08-06T08:49:38;99494.19;;;30.83;42.01
33554;BME280;19885;42.208;24.952;2022-08-06T08:52:09;99490.00;;;31.33;42.12
33554;BME280;19885;42.208;24.952;2022-08-06T08:54:39;99483.13;;;31.09;40.96
33554;BME280;19885;42.208;24.952;2022-08-06T08:57:07;99485.00;;;30.97;41.07
33554;BME280;19885;42.208;24.952;2022-08-06T08:59:35;99475.16;;;31.39;39.95
33554;BME280;19885;42.208;24.952;2022-08-06T09:02:04;99482.53;;;31.78;39.40
33554;BME280;19885;42.208;24.952;2022-08-06T09:04:31;99479.50;;;31.92;39.51
33554;BME280;19885;42.208;24.952;2022-08-06T09:06:58;99474.00;;;31.94;39.29
33554;BME280;19885;42.208;24.952;2022-08-06T09:09:24;99475.50;;;31.87;39.47
33554;BME280;19885;42.208;24.952;2022-08-06T09:11:50;99468.84;;;31.29;39.42
33554;BME280;19885;42.208;24.952;2022-08-06T09:14:19;99467.16;;;31.28;40.72
33554;BME280;19885;42.208;24.952;2022-08-06T09:16:46;99462.06;;;31.14;38.93
33554;BME280;19885;42.208;24.952;2022-08-06T09:19:15;99460.88;;;31.59;39.78
33554;BME280;19885;42.208;24.952;2022-08-06T09:21:40;99454.91;;;32.06;39.58
33554;BME280;19885;42.208;24.952;2022-08-06T09:24:09;99456.03;;;32.44;38.34
33554;BME280;19885;42.208;24.952;2022-08-06T09:26:35;99454.41;;;32.71;38.61
33554;BME280;19885;42.208;24.952;2022-08-06T09:29:00;99453.00;;;32.77;37.33
33554;BME280;19885;42.208;24.952;2022-08-06T09:31:26;99445.19;;;32.74;36.69
33554;BME280;19885;42.208;24.952;2022-08-06T09:33:57;99454.72;;;32.78;37.08
33554;BME280;19885;42.208;24.952;2022-08-06T09:36:23;99464.91;;;32.65;38.08
33554;BME280;19885;42.208;24.952;2022-08-06T09:38:59;99449.44;;;32.57;37.03
33554;BME280;19885;42.208;24.952;2022-08-06T09:41:28;99449.69;;;32.54;37.85
33554;BME280;19885;42.208;24.952;2022-08-06T09:43:56;99444.88;;;32.58;38.34
33554;BME280;19885;42.208;24.952;2022-08-06T09:46:54;99443.75;;;32.70;38.20
33554;BME280;19885;42.208;24.952;2022-08-06T09:49:23;99446.78;;;32.86;37.01
33554;BME280;19885;42.208;24.952;2022-08-06T09:51:52;99446.34;;;33.00;37.42
33554;BME280;19885;42.208;24.952;2022-08-06T09:54:37;99442.66;;;32.82;37.18
33554;BME280;19885;42.208;24.952;2022-08-06T09:57:07;99442.66;;;32.91;39.05
33554;BME280;19885;42.208;24.952;2022-08-06T09:59:46;99439.00;;;33.02;35.95
33554;BME280;19885;42.208;24.952;2022-08-06T10:02:14;99443.78;;;32.39;36.14
33554;BME280;19885;42.208;24.952;2022-08-06T10:04:40;99442.91;;;32.60;36.82
33554;BME280;19885;42.208;24.952;2022-08-06T10:07:10;99430.69;;;32.65;35.62
33554;BME280;19885;42.208;24.952;2022-08-06T10:09:36;99440.50;;;32.76;35.63
33554;BME280;19885;42.208;24.952;2022-08-06T10:12:20;99439.09;;;32.81;35.46
33554;BME280;19885;42.208;24.952;2022-08-06T10:14:46;99437.75;;;32.17;36.75
33554;BME280;19885;42.208;24.952;2022-08-06T10:17:18;99426.75;;;31.99;36.69
33554;BME280;19885;42.208;24.952;2022-08-06T10:22:29;99431.19;;;32.00;40.87
33554;BME280;19885;42.208;24.952;2022-08-06T10:24:56;99395.94;;;31.71;39.66
33554;BME280;19885;42.208;24.952;2022-08-06T10:27:34;99426.81;;;31.88;38.09
33554;BME280;19885;42.208;24.952;2022-08-06T10:30:05;99423.97;;;31.80;37.01
33554;BME280;19885;42.208;24.952;2022-08-06T10:35:05;99407.25;;;32.66;37.31
33554;BME280;19885;42.208;24.952;2022-08-06T10:37:37;99411.72;;;32.36;37.36
33554;BME280;19885;42.208;24.952;2022-08-06T10:40:04;99405.22;;;32.09;39.27
33554;BME280;19885;42.208;24.952;2022-08-06T10:42:30;99406.44;;;32.25;36.92
33554;BME280;19885;42.208;24.952;2022-08-06T10:44:58;99400.28;;;32.63;36.73
33554;BME280;19885;42.208;24.952;2022-08-06T10:47:24;99395.72;;;32.92;36.85
33554;BME280;19885;42.208;24.952;2022-08-06T10:49:53;99390.63;;;32.80;37.20
33554;BME280;19885;42.208;24.952;2022-08-06T10:52:20;99387.22;;;32.78;37.78
33554;BME280;19885;42.208;24.952;2022-08-06T10:54:46;99396.00;;;32.89;35.80
33554;BME280;19885;42.208;24.952;2022-08-06T10:57:12;99389.78;;;33.08;35.38
33554;BME280;19885;42.208;24.952;2022-08-06T10:59:42;99386.38;;;33.06;37.08
33554;BME280;19885;42.208;24.952;2022-08-06T11:02:47;99390.38;;;33.02;34.62
33554;BME280;19885;42.208;24.952;2022-08-06T11:05:17;99375.84;;;32.84;35.09
33554;BME280;19885;42.208;24.952;2022-08-06T11:08:19;99385.50;;;32.86;38.23
33554;BME280;19885;42.208;24.952;2022-08-06T11:11:04;99373.56;;;33.08;35.87
33554;BME280;19885;42.208;24.952;2022-08-06T11:13:37;99375.56;;;33.25;37.15
33554;BME280;19885;42.208;24.952;2022-08-06T11:16:05;99365.38;;;33.46;34.97
33554;BME280;19885;42.208;24.952;2022-08-06T11:18:31;99374.88;;;33.69;35.76
33554;BME280;19885;42.208;24.952;2022-08-06T11:20:57;99365.75;;;33.80;34.09
33554;BME280;19885;42.208;24.952;2022-08-06T11:23:30;99362.19;;;34.16;33.85
33554;BME280;19885;42.208;24.952;2022-08-06T11:26:01;99360.69;;;34.22;33.09
33554;BME280;19885;42.208;24.952;2022-08-06T11:31:04;99367.34;;;34.10;33.79
33554;BME280;19885;42.208;24.952;2022-08-06T11:35:59;99359.16;;;34.82;30.98
33554;BME280;19885;42.208;24.952;2022-08-06T11:46:35;99359.91;;;34.39;32.72
33554;BME280;19885;42.208;24.952;2022-08-06T11:54:14;99347.97;;;33.78;34.12
33554;BME280;19885;42.208;24.952;2022-08-06T12:02:06;99340.84;;;32.92;36.31
33554;BME280;19885;42.208;24.952;2022-08-06T12:10:07;99333.47;;;33.03;35.41
33554;BME280;19885;42.208;24.952;2022-08-06T12:12:45;99335.72;;;33.27;35.94
33554;BME280;19885;42.208;24.952;2022-08-06T12:20:41;99323.22;;;34.44;31.11
33554;BME280;19885;42.208;24.952;2022-08-06T12:23:12;99319.38;;;34.65;33.94
33554;BME280;19885;42.208;24.952;2022-08-06T12:25:43;99320.06;;;34.84;33.84
33554;BME280;19885;42.208;24.952;2022-08-06T12:28:11;99308.19;;;35.21;31.82
33554;BME280;19885;42.208;24.952;2022-08-06T12:30:48;99315.25;;;35.13;31.50
33554;BME280;19885;42.208;24.952;2022-08-06T12:33:15;99305.22;;;35.40;31.11
33554;BME280;19885;42.208;24.952;2022-08-06T12:35:55;99302.81;;;34.68;32.00
33554;BME280;19885;42.208;24.952;2022-08-06T12:38:24;99307.97;;;33.99;30.48
33554;BME280;19885;42.208;24.952;2022-08-06T12:40:53;99301.22;;;34.12;31.63
33554;BME280;19885;42.208;24.952;2022-08-06T12:43:19;99299.38;;;34.30;31.29
33554;BME280;19885;42.208;24.952;2022-08-06T12:45:55;99293.88;;;34.40;30.21
33554;BME280;19885;42.208;24.952;2022-08-06T12:48:20;99291.25;;;34.13;30.67
33554;BME280;19885;42.208;24.952;2022-08-06T12:50:46;99283.31;;;34.02;30.20
33554;BME280;19885;42.208;24.952;2022-08-06T12:53:17;99278.13;;;33.91;31.62
33554;BME280;19885;42.208;24.952;2022-08-06T12:55:54;99270.00;;;33.91;30.84
33554;BME280;19885;42.208;24.952;2022-08-06T12:58:32;99279.03;;;34.09;32.16
33554;BME280;19885;42.208;24.952;2022-08-06T13:01:00;99274.25;;;34.03;32.90
33554;BME280;19885;42.208;24.952;2022-08-06T13:03:27;99284.41;;;33.64;34.93
33554;BME280;19885;42.208;24.952;2022-08-06T13:05:57;99279.16;;;33.16;33.52
33554;BME280;19885;42.208;24.952;2022-08-06T13:08:24;99276.88;;;33.21;32.18
33554;BME280;19885;42.208;24.952;2022-08-06T13:10:52;99284.59;;;33.53;31.65
33554;BME280;19885;42.208;24.952;2022-08-06T13:13:19;99273.84;;;33.24;33.01
33554;BME280;19885;42.208;24.952;2022-08-06T13:16:05;99277.31;;;33.17;32.04
33554;BME280;19885;42.208;24.952;2022-08-06T13:18:31;99270.25;;;33.33;33.75
33554;BME280;19885;42.208;24.952;2022-08-06T13:20:58;99270.81;;;33.73;34.54
33554;BME280;19885;42.208;24.952;2022-08-06T13:23:32;99272.00;;;33.89;32.63
33554;BME280;19885;42.208;24.952;2022-08-06T13:26:09;99266.94;;;33.76;32.90
33554;BME280;19885;42.208;24.952;2022-08-06T13:28:35;99265.53;;;33.99;33.58
33554;BME280;19885;42.208;24.952;2022-08-06T13:31:01;99249.13;;;34.45;31.90
33554;BME280;19885;42.208;24.952;2022-08-06T13:33:26;99261.94;;;34.26;33.70
33554;BME280;19885;42.208;24.952;2022-08-06T13:36:08;99259.41;;;34.77;31.57
33554;BME280;19885;42.208;24.952;2022-08-06T13:38:36;99257.81;;;34.92;31.14
33554;BME280;19885;42.208;24.952;2022-08-06T13:41:03;99257.38;;;35.31;29.25
33554;BME280;19885;42.208;24.952;2022-08-06T13:43:40;99253.59;;;35.16;34.94
33554;BME280;19885;42.208;24.952;2022-08-06T13:46:13;99255.38;;;34.46;33.78
33554;BME280;19885;42.208;24.952;2022-08-06T13:51:13;99241.34;;;33.43;36.00
33554;BME280;19885;42.208;24.952;2022-08-06T13:53:39;99246.09;;;33.32;37.44
33554;BME280;19885;42.208;24.952;2022-08-06T13:56:04;99251.81;;;33.19;37.09
33554;BME280;19885;42.208;24.952;2022-08-06T13:58:31;99251.44;;;33.14;38.33
33554;BME280;19885;42.208;24.952;2022-08-06T14:00:57;99266.63;;;33.15;41.47
33554;BME280;19885;42.208;24.952;2022-08-06T14:03:23;99264.13;;;32.27;46.87
33554;BME280;19885;42.208;24.952;2022-08-06T14:05:50;99257.63;;;31.71;46.26
33554;BME280;19885;42.208;24.952;2022-08-06T14:08:16;99249.34;;;31.33;50.23
33554;BME280;19885;42.208;24.952;2022-08-06T14:10:42;99252.75;;;30.43;50.83
33554;BME280;19885;42.208;24.952;2022-08-06T14:13:07;99262.88;;;30.18;51.13
33554;BME280;19885;42.208;24.952;2022-08-06T14:17:03;99252.75;;;30.11;51.58